Albardon, Argentina
Current Conditions -  °F | °C
As of 3:00 PM on Saturday 20 Dec 2014 (Local Time) from SAME Reporting Station
Scattered Clouds Scattered Clouds  
Wind Chill: 77°   Ceiling: Unl
Heat Index: 77°   Visibility: 6mi
Dew Point: 39°   Wind: 12mph
Humidity: 26%   Direction: 110°ESE
Pressure: 29.65"   Gusts: NA
Location:  31.43°S, 68.53°W
Report Text: SAME 201800Z 11010KT 9999 FEW045 SCT050 25/04 Q1004
Loading
Personal Weather Stations






























Interactive Weather Map New forecast layout! Learn more

10-Day Weather Forecast

Advertisements
Track Severe Weather on mobile